Aérodrome :
LOGIN :

S'inscrire | Disclaimer

   EN    FR    IT 

 










Légende :    VFR   VFR Marginal   IFR   IFR Intensif   IFR Très Intensif
Visi : 
Plafond : 
>= 8 km
>= 3000ft
5 à 8 km
1000 à 3000 ft
1500m à 5 km
500 à 1000 ft
800 à 1500m
200 à 500 ft
< 800m
< 200 ft
Symboles :   Orages  Brouillard  Fortes neiges  Fortes précipitations  Vent > 20 kt
SIGMETs :   Divers  Orages  Givrage  Turbulence  Onde Orograph.  Cendres Volcan.






- Altitude de l'aérodrome : 27 ft
- Code IATA : PMI


LEPA - Palma de Mallorca

DERNIER METAR :
  • 281230Z 09005KT 020V180 9999 FEW025 28/10 Q1023 NOSIG

METARs EXPIRÉS :
  • 281200Z 06006KT 360V110 9999 FEW025 28/10 Q1023 NOSIG
  • 281130Z 06007KT 020V100 9999 FEW025 28/11 Q1023 NOSIG
  • 281100Z 10008KT 060V150 9999 FEW025 28/09 Q1024 NOSIG
  • 281030Z 12011KT 100V160 9999 FEW025 28/10 Q1024 NOSIG
  • 281000Z 08007KT 040V150 9999 FEW025 27/12 Q1024 NOSIG

TAF TAF LEPA
Valide du 28 à 12h jusqu'au 29 à 12h UTC


281100Z 2812/2912 09008KT 9999 FEW035 TX28/2812Z TN14/2906Z
BECMG 2812/2814 25010KT
BECMG 2819/2822 VRB03KT
BECMG 2908/2910 23010KT



MET'MAP, la Météo Aéronautique d'un coup d'oeil ! - Copyright ORBIFLY Décembre 2007 - Disclaimer

ORBIFLY MET'MAP TEAM :

Programmation & Développement : Alexandra Zaïnal
Sur une idée originale de : Baudouin d'Aumeries
Assistance à la programmation : Marc-Olivier Méhu
Soutien technique & logistique : Manuel Goepfert

Contact : metmap@orbifly.com




SOURCES & CREDITS :

   NOAA